Terminal Aerodrome Forecast
Issued by NWS

Home | Current Version | Previous Version | Graphics & Text | Print | Product List | Glossary On
Versions: 1 2 3 4 5 6 7 8 9 10 11 12 13 14 15 16 17 18 19 20 21 22
000
FTUS43 KICT 290523 CCA
TAFCNU
TAF COR
KCNU 290523Z 2906/3006 16007KT P6SM BKN120
      TEMPO 2906/2909 BKN025
     FM290900 18011KT P6SM VCTS BKN035CB OVC080
      TEMPO 2909/2912 2SM -TSRA
     FM291500 20010KT P6SM BKN100
     FM300100 20005KT P6SM BKN120=

USA.gov is the U.S. government's official web portal to all federal, state and local government web resources and services.